Time;durP1;ratioP1;P1;durP2;ratioP2;P2;SDS_P1;SDS_P2;PMS_P1;PMS_P2;Temp;Humidity;BMP_temperature;BMP_pressure;BME280_temperature;BME280_humidity;BME280_pressure;Samples;Min_cycle;Max_cycle;Signal;HPM_P1;HPM_P2
2022/06/06 00:00:34;;;;;;;1.10;0.30;;;15.40;99.90;;;;;;5063229;28;20051;-69
2022/06/06 00:03:01;;;;;;;1.67;0.50;;;15.50;99.90;;;;;;5061687;28;20040;-69
2022/06/06 00:05:26;;;;;;;0.70;0.20;;;15.40;99.90;;;;;;5063499;28;20029;-70
2022/06/06 00:07:53;;;;;;;0.65;0.20;;;15.40;99.90;;;;;;5061432;28;20025;-69
2022/06/06 00:10:18;;;;;;;0.80;0.25;;;15.40;99.90;;;;;;5063072;28;20029;-70
2022/06/06 00:12:44;;;;;;;0.47;0.30;;;15.40;99.90;;;;;;5061885;28;20032;-70
2022/06/06 00:15:12;;;;;;;0.40;0.20;;;15.40;99.90;;;;;;5062494;28;20047;-70
2022/06/06 00:17:38;;;;;;;0.60;0.20;;;15.30;99.90;;;;;;5062506;28;20032;-70
2022/06/06 00:20:04;;;;;;;0.28;0.17;;;15.40;99.90;;;;;;5061452;28;20505;-70
2022/06/06 00:22:30;;;;;;;0.52;0.25;;;15.30;99.90;;;;;;5062222;28;20039;-69
2022/06/06 00:24:55;;;;;;;0.35;0.20;;;15.30;99.90;;;;;;5061085;28;20084;-70
2022/06/06 00:27:21;;;;;;;0.70;0.43;;;15.30;99.90;;;;;;5063174;28;20025;-70
2022/06/06 00:29:47;;;;;;;0.63;0.35;;;15.30;99.90;;;;;;5061497;28;20033;-69
2022/06/06 00:35:03;;;;;;;0.63;0.20;;;15.30;99.90;;;;;;5062899;28;20048;-69
2022/06/06 00:37:31;;;;;;;0.22;0.20;;;15.30;99.90;;;;;;5059736;28;20036;-70
2022/06/06 00:39:58;;;;;;;0.30;0.20;;;15.30;99.90;;;;;;5063014;28;20411;-70
2022/06/06 00:42:23;;;;;;;0.35;0.20;;;15.20;99.90;;;;;;5060978;28;20116;-69
2022/06/06 00:45:32;;;;;;;0.15;0.15;;;15.20;99.90;;;;;;5062329;28;20025;-69
2022/06/06 00:48:30;;;;;;;0.17;0.17;;;15.20;99.90;;;;;;5059046;28;20053;-68
2022/06/06 00:51:07;;;;;;;0.20;0.17;;;15.10;99.90;;;;;;5060709;28;20067;-69
2022/06/06 00:53:44;;;;;;;0.38;0.20;;;15.10;99.90;;;;;;5061849;28;20048;-69
2022/06/06 00:56:27;;;;;;;0.10;0.10;;;15.10;99.90;;;;;;5062002;28;20041;-69
2022/06/06 00:58:58;;;;;;;0.43;0.28;;;15.10;99.90;;;;;;5060260;28;20021;-69
2022/06/06 01:01:26;;;;;;;0.47;0.20;;;15.10;99.90;;;;;;5062445;28;20089;-69
2022/06/06 01:03:52;;;;;;;0.40;0.30;;;15.00;99.90;;;;;;5060647;28;20100;-69
2022/06/06 01:06:19;;;;;;;0.40;0.20;;;15.00;99.90;;;;;;5061711;28;20036;-69
2022/06/06 01:08:46;;;;;;;1.02;0.40;;;15.00;99.90;;;;;;5061449;28;20025;-68
2022/06/06 01:11:12;;;;;;;0.88;0.40;;;15.00;99.90;;;;;;5060847;28;20025;-69
2022/06/06 01:13:41;;;;;;;0.32;0.20;;;15.00;99.90;;;;;;5062038;28;20041;-69
2022/06/06 01:16:45;;;;;;;0.80;0.30;;;15.00;99.90;;;;;;5059538;28;20025;-69
2022/06/06 01:19:19;;;;;;;0.75;0.30;;;14.90;99.90;;;;;;5060778;28;20064;-69
2022/06/06 01:22:07;;;;;;;0.50;0.20;;;14.90;99.90;;;;;;5061387;28;20025;-69
2022/06/06 01:24:38;;;;;;;1.92;0.75;;;14.90;99.90;;;;;;5060034;28;20053;-69
2022/06/06 01:27:10;;;;;;;;;;;14.90;99.90;;;;;;5062505;28;20112;-70
2022/06/06 01:29:40;;;;;;;0.55;0.20;;;14.90;99.90;;;;;;5060201;28;19940;-69
2022/06/06 01:32:08;;;;;;;0.80;0.28;;;14.90;99.90;;;;;;5061670;28;20392;-70
2022/06/06 01:34:38;;;;;;;0.52;0.20;;;14.80;99.90;;;;;;5061176;28;20060;-69
2022/06/06 01:37:22;;;;;;;1.08;0.52;;;14.80;99.90;;;;;;5058828;28;20025;-69
2022/06/06 01:39:47;;;;;;;0.40;0.20;;;14.80;99.90;;;;;;5061921;28;20032;-70
2022/06/06 01:42:40;;;;;;;1.08;0.30;;;14.80;99.90;;;;;;5058357;28;20021;-70
2022/06/06 01:45:13;;;;;;;0.35;0.15;;;14.80;99.90;;;;;;5061090;28;20021;-69
2022/06/06 01:47:57;;;;;;;0.32;0.20;;;14.70;99.90;;;;;;5060983;28;20017;-70
2022/06/06 01:50:24;;;;;;;0.73;0.28;;;14.70;99.90;;;;;;5057953;28;20092;-69
2022/06/06 01:53:00;;;;;;;0.65;0.28;;;14.70;99.90;;;;;;5061589;28;20021;-70
2022/06/06 01:55:28;;;;;;;0.88;0.30;;;14.70;99.90;;;;;;5060011;28;20041;-69
2022/06/06 01:57:59;;;;;;;0.38;0.20;;;14.60;99.90;;;;;;5060791;28;20026;-69
2022/06/06 02:00:25;;;;;;;0.35;0.20;;;14.70;99.90;;;;;;5059705;28;20025;-69
2022/06/06 02:02:52;;;;;;;0.60;0.20;;;14.60;99.90;;;;;;5058470;28;20122;-70
2022/06/06 02:05:17;;;;;;;0.65;0.30;;;14.60;99.90;;;;;;5061670;28;20441;-69
2022/06/06 02:07:44;;;;;;;1.30;0.68;;;14.60;99.90;;;;;;5059337;28;20025;-69
2022/06/06 02:10:11;;;;;;;0.70;0.25;;;14.60;99.90;;;;;;5061460;28;20029;-69
2022/06/06 02:12:39;;;;;;;0.60;0.25;;;14.60;99.90;;;;;;5059881;28;20021;-69
2022/06/06 02:15:07;;;;;;;1.17;0.45;;;14.60;99.90;;;;;;5060777;28;20155;-69
2022/06/06 02:17:32;;;;;;;0.80;0.30;;;14.70;99.90;;;;;;5060626;28;20026;-69
2022/06/06 02:19:59;;;;;;;0.10;0.10;;;14.60;99.90;;;;;;5059693;28;20089;-70
2022/06/06 02:22:24;;;;;;;1.02;0.30;;;14.70;99.90;;;;;;5059831;28;20608;-69
2022/06/06 02:24:50;;;;;;;0.60;0.20;;;14.60;99.90;;;;;;5059535;28;20021;-69
2022/06/06 02:27:16;;;;;;;0.73;0.30;;;14.60;99.90;;;;;;5061331;28;20355;-70
2022/06/06 02:29:43;;;;;;;0.73;0.30;;;14.60;99.90;;;;;;5059766;28;20539;-69
2022/06/06 02:32:09;;;;;;;0.20;0.20;;;14.60;99.90;;;;;;5060660;28;20033;-70
2022/06/06 02:34:35;;;;;;;0.20;0.20;;;14.60;99.90;;;;;;5060677;28;20076;-70
2022/06/06 02:37:01;;;;;;;0.20;0.20;;;14.60;99.90;;;;;;5059617;28;20033;-70
2022/06/06 02:39:27;;;;;;;0.50;0.20;;;14.60;99.90;;;;;;5061308;28;20028;-70
2022/06/06 02:41:53;;;;;;;0.93;0.30;;;14.60;99.90;;;;;;5058969;28;20021;-70
2022/06/06 02:44:19;;;;;;;0.50;0.22;;;14.60;99.90;;;;;;5061385;28;20017;-69
2022/06/06 02:46:45;;;;;;;0.43;0.20;;;14.60;99.90;;;;;;5062392;28;20036;-70
2022/06/06 02:49:11;;;;;;;0.10;0.10;;;14.60;99.90;;;;;;5063176;28;20044;-69
2022/06/06 02:51:36;;;;;;;0.50;0.40;;;14.70;99.90;;;;;;5064251;28;20029;-69
2022/06/06 02:54:03;;;;;;;0.32;0.20;;;14.60;99.90;;;;;;5063476;28;20048;-69
2022/06/06 02:56:29;;;;;;;0.47;0.32;;;14.70;99.90;;;;;;5064784;28;20032;-69
2022/06/06 02:58:57;;;;;;;0.50;0.20;;;14.70;99.90;;;;;;5062784;28;20021;-69
2022/06/06 03:01:23;;;;;;;0.70;0.40;;;14.70;99.90;;;;;;5064826;28;20047;-70
2022/06/06 03:03:48;;;;;;;1.65;0.63;;;14.60;99.90;;;;;;5063134;28;20029;-68
2022/06/06 03:06:34;;;;;;;2.28;1.15;;;14.60;99.90;;;;;;5064319;28;20036;-69
2022/06/06 03:09:21;;;;;;;1.17;0.43;;;14.60;99.90;;;;;;5064325;28;20017;-69
2022/06/06 03:12:12;;;;;;;1.42;0.60;;;14.50;99.90;;;;;;5062453;28;20170;-70
2022/06/06 03:14:59;;;;;;;1.30;0.50;;;14.50;99.90;;;;;;5064339;28;20040;-70
2022/06/06 03:20:49;;;;;;;1.60;0.75;;;14.40;99.90;;;;;;5062744;28;20039;-69
2022/06/06 03:23:37;;;;;;;4.25;0.52;;;14.40;99.90;;;;;;5063989;28;20064;-70
2022/06/06 03:26:15;;;;;;;0.60;0.28;;;14.40;99.90;;;;;;5063756;28;20484;-69
2022/06/06 03:29:10;;;;;;;0.65;0.30;;;14.30;99.90;;;;;;5062468;28;20108;-69
2022/06/06 03:32:09;;;;;;;1.02;0.50;;;14.40;99.90;;;;;;5064219;28;20095;-70
2022/06/06 03:35:07;;;;;;;1.95;0.57;;;14.30;99.90;;;;;;5063542;28;20055;-70
2022/06/06 03:38:01;;;;;;;0.60;0.22;;;14.30;99.90;;;;;;5056991;28;20090;-69
2022/06/06 03:40:55;;;;;;;1.10;0.43;;;14.30;99.90;;;;;;5063829;28;20025;-69
2022/06/06 03:43:29;;;;;;;0.68;0.43;;;14.20;99.90;;;;;;5063875;28;20029;-69
2022/06/06 03:46:29;;;;;;;1.27;0.68;;;14.20;99.90;;;;;;5061483;28;20048;-69
2022/06/06 03:49:31;;;;;;;0.90;0.60;;;14.20;99.90;;;;;;5063840;28;20025;-70
2022/06/06 03:52:16;;;;;;;0.73;0.55;;;14.20;99.90;;;;;;5060624;28;20033;-69
2022/06/06 03:55:14;;;;;;;1.27;0.52;;;14.20;99.90;;;;;;5061750;28;20053;-69
2022/06/06 03:57:42;;;;;;;0.77;0.30;;;14.20;99.90;;;;;;5053545;28;20037;-69
2022/06/06 04:00:14;;;;;;;0.65;0.30;;;14.10;99.90;;;;;;5062873;28;20063;-69
2022/06/06 04:02:42;;;;;;;1.35;0.50;;;14.10;99.90;;;;;;5062291;28;20096;-69
2022/06/06 04:05:19;;;;;;;1.50;0.68;;;14.10;99.90;;;;;;5063761;28;20032;-69
2022/06/06 04:07:45;;;;;;;1.42;0.60;;;14.10;99.90;;;;;;5061542;28;20029;-69
2022/06/06 04:10:13;;;;;;;0.85;0.60;;;14.10;99.90;;;;;;5063360;28;20033;-69
2022/06/06 04:13:03;;;;;;;1.73;0.40;;;14.10;99.90;;;;;;5062105;28;20043;-69
2022/06/06 04:15:28;;;;;;;0.20;0.20;;;14.10;99.90;;;;;;5061862;28;20048;-69
2022/06/06 04:18:09;;;;;;;0.25;0.20;;;14.00;99.90;;;;;;5063002;28;20013;-68
2022/06/06 04:20:52;;;;;;;1.20;0.60;;;14.10;99.90;;;;;;5061236;28;20029;-69
2022/06/06 04:24:00;;;;;;;1.15;0.73;;;14.00;99.90;;;;;;5062919;28;20052;-69
2022/06/06 04:27:04;;;;;;;0.70;0.28;;;14.00;99.90;;;;;;5063167;28;20074;-69
2022/06/06 04:29:45;;;;;;;1.75;0.90;;;14.00;99.90;;;;;;5054840;28;20048;-69
2022/06/06 04:32:31;;;;;;;0.85;0.47;;;13.90;99.90;;;;;;5062408;28;20049;-69
2022/06/06 04:35:28;;;;;;;0.75;0.30;;;13.90;99.90;;;;;;5062897;28;20037;-69
2022/06/06 04:38:21;;;;;;;3.83;0.55;;;13.90;99.90;;;;;;5061082;28;20021;-69
2022/06/06 04:40:53;;;;;;;0.60;0.32;;;13.90;99.90;;;;;;5062109;28;20035;-69
2022/06/06 04:43:19;;;;;;;0.88;0.73;;;13.90;99.90;;;;;;5062622;28;20393;-69
2022/06/06 04:46:21;;;;;;;1.30;0.73;;;13.90;99.90;;;;;;5061067;28;20357;-69
2022/06/06 04:48:47;;;;;;;1.52;0.60;;;13.90;99.90;;;;;;5062779;28;20091;-70
2022/06/06 04:51:17;;;;;;;0.93;0.52;;;13.90;99.90;;;;;;5061269;28;20025;-69
2022/06/06 04:53:47;;;;;;;1.30;0.75;;;13.90;99.90;;;;;;5061652;28;20063;-70
2022/06/06 04:56:15;;;;;;;1.80;1.13;;;13.90;99.90;;;;;;5062315;28;20040;-69
2022/06/06 04:58:43;;;;;;;0.90;0.40;;;13.90;99.90;;;;;;5060740;28;20122;-70
2022/06/06 05:01:12;;;;;;;5.18;1.45;;;14.00;99.90;;;;;;5062596;28;20448;-69
2022/06/06 05:03:38;;;;;;;1.35;0.60;;;14.00;99.90;;;;;;5060579;28;20108;-70
2022/06/06 05:06:18;;;;;;;1.70;0.95;;;14.00;99.90;;;;;;5062116;28;20052;-70
2022/06/06 05:08:56;;;;;;;1.35;0.52;;;14.00;99.90;;;;;;5060270;28;20024;-70
2022/06/06 05:11:40;;;;;;;1.30;0.52;;;14.00;99.90;;;;;;5060819;28;20079;-70
2022/06/06 05:14:24;;;;;;;0.50;0.20;;;14.00;99.90;;;;;;5062956;28;20477;-70
2022/06/06 05:17:30;;;;;;;1.08;0.70;;;14.00;99.90;;;;;;5062977;28;20044;-69
2022/06/06 05:20:27;;;;;;;0.88;0.47;;;14.00;99.90;;;;;;5062030;28;20082;-70
2022/06/06 05:22:56;;;;;;;2.67;0.82;;;14.00;99.90;;;;;;5064543;28;20060;-70
2022/06/06 05:25:45;;;;;;;0.45;0.22;;;14.00;99.90;;;;;;5063677;28;20025;-70
2022/06/06 05:28:22;;;;;;;0.88;0.47;;;14.00;99.90;;;;;;5061507;28;20043;-70
2022/06/06 05:31:07;;;;;;;0.93;0.38;;;14.00;99.90;;;;;;5062070;28;20071;-70
2022/06/06 05:33:44;;;;;;;1.35;0.65;;;14.10;99.90;;;;;;5058702;28;20033;-70
2022/06/06 05:36:37;;;;;;;0.75;0.75;;;14.10;99.90;;;;;;5061481;28;20021;-68
2022/06/06 05:39:24;;;;;;;1.27;0.60;;;14.10;99.90;;;;;;5061522;28;20048;-69
2022/06/06 05:42:07;;;;;;;1.13;0.30;;;14.10;99.90;;;;;;5059490;28;20024;-69
2022/06/06 05:44:33;;;;;;;1.58;0.73;;;14.10;99.90;;;;;;5060053;28;20053;-69
2022/06/06 05:47:30;;;;;;;1.10;0.50;;;14.10;99.90;;;;;;5059948;28;20013;-69
2022/06/06 05:50:01;;;;;;;1.00;0.40;;;14.10;99.90;;;;;;5060319;28;20027;-70
2022/06/06 05:53:02;;;;;;;2.28;0.77;;;14.10;99.90;;;;;;5061933;28;20039;-70
2022/06/06 05:55:46;;;;;;;0.65;0.30;;;14.10;99.90;;;;;;5048574;28;20060;-70
2022/06/06 05:58:40;;;;;;;0.45;0.25;;;14.10;99.90;;;;;;5060229;28;20166;-70
2022/06/06 06:01:11;;;;;;;0.75;0.40;;;14.20;99.90;;;;;;5060168;28;20040;-70
2022/06/06 06:03:49;;;;;;;1.10;0.45;;;14.20;99.90;;;;;;5059793;28;20013;-70
2022/06/06 06:06:28;;;;;;;0.75;0.30;;;14.20;99.90;;;;;;5060919;28;20039;-71
2022/06/06 06:09:20;;;;;;;0.95;0.40;;;14.20;99.90;;;;;;5060975;28;20032;-70
2022/06/06 06:12:04;;;;;;;1.13;0.65;;;14.20;99.90;;;;;;5059371;28;20027;-70
2022/06/06 06:14:56;;;;;;;1.92;1.23;;;14.20;99.90;;;;;;5061212;28;20037;-70
2022/06/06 06:17:25;;;;;;;1.60;0.50;;;14.20;99.90;;;;;;5060528;28;20055;-70
2022/06/06 06:20:00;;;;;;;2.47;0.63;;;14.30;99.90;;;;;;5059925;28;20033;-70
2022/06/06 06:22:29;;;;;;;1.52;0.60;;;14.30;99.90;;;;;;5065309;28;20045;-70
2022/06/06 06:25:00;;;;;;;1.70;0.88;;;14.30;99.90;;;;;;5063754;28;20032;-69
2022/06/06 06:27:28;;;;;;;2.20;1.13;;;14.40;99.90;;;;;;5065138;28;20029;-69
2022/06/06 06:29:54;;;;;;;0.35;0.20;;;14.40;99.90;;;;;;5064458;28;20029;-69
2022/06/06 06:32:40;;;;;;;1.08;0.47;;;14.50;99.90;;;;;;5064163;28;20029;-70
2022/06/06 06:35:42;;;;;;;3.65;1.20;;;14.60;99.90;;;;;;5065267;28;20039;-68
2022/06/06 06:38:08;;;;;;;;;;;15.10;99.90;;;;;;5064084;28;20060;-70
2022/06/06 06:40:54;;;;;;;0.20;0.20;;;15.50;99.90;;;;;;5064602;28;20352;-70
2022/06/06 06:43:20;;;;;;;0.55;0.20;;;15.70;99.90;;;;;;5064903;28;20035;-70
2022/06/06 06:46:11;;;;;;;2.10;1.13;;;15.70;99.90;;;;;;5063155;28;20033;-69
2022/06/06 06:48:40;;;;;;;1.13;0.50;;;15.70;99.90;;;;;;5064880;28;20473;-70
2022/06/06 06:51:09;;;;;;;1.23;0.45;;;15.70;99.90;;;;;;5063430;28;20021;-70
2022/06/06 06:54:05;;;;;;;1.58;0.50;;;15.80;99.90;;;;;;5064025;28;20085;-69
2022/06/06 06:56:43;;;;;;;0.98;0.50;;;16.00;99.90;;;;;;5064976;28;20126;-70
2022/06/06 06:59:33;;;;;;;0.80;0.38;;;15.80;99.90;;;;;;5062630;28;20045;-69
2022/06/06 07:08:34;;;;;;;0.93;0.50;;;16.40;99.90;;;;;;5063130;28;20159;-69
2022/06/06 07:11:39;;;;;;;1.55;0.50;;;16.60;99.90;;;;;;5063280;28;20093;-69
2022/06/06 07:14:13;;;;;;;1.05;0.52;;;16.80;99.90;;;;;;5064569;28;20052;-70
2022/06/06 07:16:40;;;;;;;1.85;0.45;;;16.90;99.90;;;;;;5062421;28;20031;-69
2022/06/06 07:19:11;;;;;;;0.82;0.30;;;16.90;99.90;;;;;;5063754;28;20021;-70
2022/06/06 07:21:38;;;;;;;1.15;0.63;;;16.70;99.90;;;;;;5063853;28;20142;-69
2022/06/06 07:24:07;;;;;;;1.15;0.38;;;16.60;99.90;;;;;;5062492;28;20069;-68
2022/06/06 07:26:38;;;;;;;0.50;0.20;;;16.40;99.90;;;;;;5064355;28;20060;-69
2022/06/06 07:29:10;;;;;;;0.60;0.30;;;16.30;99.90;;;;;;5062207;28;20076;-68
2022/06/06 07:31:53;;;;;;;0.65;0.28;;;16.30;99.90;;;;;;5063818;28;20367;-68
2022/06/06 07:34:34;;;;;;;0.45;0.20;;;16.00;99.90;;;;;;5063253;28;20036;-68
2022/06/06 07:37:09;;;;;;;1.05;0.40;;;16.10;99.90;;;;;;5062368;28;20036;-69
2022/06/06 07:39:38;;;;;;;0.70;0.30;;;16.00;99.90;;;;;;5064162;28;20029;-68
2022/06/06 07:42:41;;;;;;;0.80;0.47;;;16.00;99.90;;;;;;5061840;28;20029;-69
2022/06/06 07:45:40;;;;;;;0.73;0.25;;;16.00;99.90;;;;;;5062833;28;20489;-68
2022/06/06 07:48:25;;;;;;;1.58;0.90;;;16.70;99.90;;;;;;5056066;28;20094;-69
2022/06/06 07:51:35;;;;;;;1.58;0.65;;;17.30;99.90;;;;;;5062146;28;20044;-68
2022/06/06 07:54:35;;;;;;;0.50;0.40;;;17.40;99.90;;;;;;5062013;28;20524;-69
2022/06/06 07:57:17;;;;;;;0.73;0.30;;;17.10;99.90;;;;;;5063531;28;20021;-69
2022/06/06 07:59:56;;;;;;;0.17;0.10;;;16.70;99.90;;;;;;5062262;28;20100;-69
2022/06/06 08:02:40;;;;;;;0.47;0.20;;;16.40;99.90;;;;;;5062439;28;20366;-70
2022/06/06 08:05:11;;;;;;;1.33;0.60;;;16.20;99.90;;;;;;5063556;28;20408;-69
2022/06/06 08:07:42;;;;;;;1.45;0.57;;;16.00;99.90;;;;;;5061530;28;20025;-70
2022/06/06 08:10:28;;;;;;;0.52;0.20;;;15.90;99.90;;;;;;5063495;28;20089;-69
2022/06/06 08:13:31;;;;;;;1.02;0.32;;;16.00;99.90;;;;;;5062561;28;20028;-70
2022/06/06 08:16:13;;;;;;;1.33;0.60;;;16.10;99.90;;;;;;5049617;28;20568;-69
2022/06/06 08:18:44;;;;;;;0.60;0.20;;;16.20;99.90;;;;;;5063038;28;20044;-69
2022/06/06 08:21:29;;;;;;;1.80;0.75;;;16.70;99.90;;;;;;5060524;28;20029;-69
2022/06/06 08:23:59;;;;;;;1.38;0.63;;;17.00;99.90;;;;;;5061602;28;20112;-69
2022/06/06 08:26:26;;;;;;;0.93;0.38;;;17.30;99.90;;;;;;5063189;28;20056;-69
2022/06/06 08:28:53;;;;;;;1.80;1.17;;;17.30;99.90;;;;;;5059763;28;20025;-70
2022/06/06 08:31:19;;;;;;;0.70;0.28;;;16.90;99.90;;;;;;5063050;28;20052;-71
2022/06/06 08:33:46;;;;;;;2.60;1.23;;;16.40;99.90;;;;;;5061235;28;20066;-70
2022/06/06 08:36:15;;;;;;;1.10;0.65;;;16.10;99.90;;;;;;5062438;28;20017;-70
2022/06/06 08:38:41;;;;;;;8.38;0.63;;;16.20;99.90;;;;;;5062099;28;20138;-70
2022/06/06 08:41:25;;;;;;;0.95;0.47;;;16.00;99.90;;;;;;5061288;28;20077;-70
2022/06/06 08:44:01;;;;;;;0.65;0.20;;;15.80;99.90;;;;;;5062402;28;20025;-70
2022/06/06 08:46:29;;;;;;;1.00;0.40;;;15.70;99.90;;;;;;5060608;28;20108;-69
2022/06/06 08:49:10;;;;;;;0.93;0.47;;;15.70;99.90;;;;;;5062573;28;20024;-69
2022/06/06 08:51:49;;;;;;;1.52;0.93;;;15.80;99.90;;;;;;5062097;28;20029;-69
2022/06/06 08:54:52;;;;;;;0.95;0.45;;;16.60;99.90;;;;;;5060499;28;20037;-70
2022/06/06 08:57:27;;;;;;;1.45;0.75;;;17.40;99.90;;;;;;5062663;28;20058;-70
2022/06/06 09:00:18;;;;;;;0.47;0.20;;;18.10;99.90;;;;;;5061548;28;20021;-69
2022/06/06 09:03:41;;;;;;;0.52;0.35;;;18.30;99.90;;;;;;5060836;28;20045;-69
2022/06/06 09:06:21;;;;;;;0.57;0.25;;;17.90;99.90;;;;;;5039303;28;20128;-70
2022/06/06 09:08:56;;;;;;;1.55;0.85;;;17.30;99.90;;;;;;5039799;28;20056;-70
2022/06/06 09:11:54;;;;;;;0.28;0.15;;;17.40;99.90;;;;;;5051844;28;20041;-69
2022/06/06 09:14:22;;;;;;;0.85;0.30;;;17.90;99.90;;;;;;5062136;28;20033;-69
2022/06/06 09:17:20;;;;;;;0.28;0.10;;;18.40;99.90;;;;;;5060429;28;20029;-69
2022/06/06 09:20:27;;;;;;;2.08;0.95;;;18.80;99.90;;;;;;5049591;28;20040;-69
2022/06/06 09:23:23;;;;;;;0.73;0.30;;;18.70;99.90;;;;;;5041871;28;20892;-70
2022/06/06 09:26:00;;;;;;;0.35;0.30;;;18.20;99.90;;;;;;5061691;28;20154;-69
2022/06/06 09:28:59;;;;;;;0.52;0.28;;;17.40;99.90;;;;;;5060342;28;20472;-68
2022/06/06 09:31:43;;;;;;;0.68;0.20;;;17.00;99.90;;;;;;5061891;28;20032;-69
2022/06/06 09:34:33;;;;;;;0.40;0.20;;;16.70;99.90;;;;;;5060988;28;20033;-68
2022/06/06 09:37:34;;;;;;;0.70;0.20;;;16.40;99.90;;;;;;5060072;28;20028;-69
2022/06/06 09:40:18;;;;;;;0.45;0.25;;;16.70;99.90;;;;;;5061904;28;20029;-69
2022/06/06 09:43:11;;;;;;;0.50;0.30;;;16.90;99.90;;;;;;5060923;28;20053;-69
2022/06/06 09:46:15;;;;;;;0.95;0.40;;;16.80;99.90;;;;;;5060127;28;20384;-69
2022/06/06 09:49:26;;;;;;;0.90;0.40;;;16.70;99.90;;;;;;5050086;28;20070;-69
2022/06/06 09:52:13;;;;;;;0.38;0.22;;;16.10;99.90;;;;;;5060189;28;20076;-68
2022/06/06 10:01:46;;;;;;;0.65;0.38;;;17.20;99.90;;;;;;5039528;28;20051;-69
2022/06/06 10:04:59;;;;;;;0.60;0.20;;;18.30;99.90;;;;;;5059286;28;20025;-69
2022/06/06 10:07:46;;;;;;;0.63;0.25;;;19.30;99.90;;;;;;5059511;28;20032;-69
2022/06/06 10:10:47;;;;;;;0.82;0.43;;;18.30;99.90;;;;;;5061162;28;20532;-69
2022/06/06 10:13:31;;;;;;;0.40;0.20;;;16.90;99.90;;;;;;5061480;28;20025;-70
2022/06/06 10:16:08;;;;;;;1.25;0.75;;;16.60;99.90;;;;;;5059411;28;20043;-69
2022/06/06 10:18:53;;;;;;;0.38;0.10;;;16.30;99.90;;;;;;5061100;28;20051;-69
2022/06/06 10:21:38;;;;;;;0.55;0.20;;;16.20;99.90;;;;;;5059195;28;20028;-69
2022/06/06 10:24:41;;;;;;;0.77;0.30;;;16.40;99.90;;;;;;5059592;28;20071;-69
2022/06/06 10:27:26;;;;;;;0.80;0.30;;;17.40;99.90;;;;;;5061181;28;20025;-70
2022/06/06 10:30:16;;;;;;;0.10;0.10;;;18.40;99.90;;;;;;5060217;28;20032;-69
2022/06/06 10:33:28;;;;;;;0.80;0.28;;;19.00;99.90;;;;;;5059329;28;20036;-70
2022/06/06 10:36:31;;;;;;;0.65;0.30;;;19.20;99.90;;;;;;5061007;28;20399;-70
2022/06/06 10:39:11;;;;;;;0.30;0.10;;;18.80;99.90;;;;;;5061017;28;20024;-70
2022/06/06 10:41:55;;;;;;;0.50;0.20;;;19.40;99.90;;;;;;5058954;28;20017;-69
2022/06/06 10:44:52;;;;;;;0.60;0.40;;;19.70;99.90;;;;;;5060821;28;20047;-69
2022/06/06 10:47:37;;;;;;;0.30;0.10;;;20.10;99.90;;;;;;5060161;28;20029;-68
2022/06/06 10:50:16;;;;;;;0.38;0.20;;;20.40;99.90;;;;;;5059510;28;20021;-68
2022/06/06 10:53:00;;;;;;;0.13;0.13;;;20.20;99.90;;;;;;5060877;28;20060;-68
2022/06/06 10:55:55;;;;;;;1.15;0.22;;;19.40;99.90;;;;;;5059871;28;20032;-68
2022/06/06 10:58:23;;;;;;;0.15;0.10;;;19.00;99.90;;;;;;5059053;28;20048;-69
2022/06/06 11:01:11;;;;;;;0.22;0.10;;;18.20;99.90;;;;;;5061011;28;20021;-70
2022/06/06 11:04:15;;;;;;;0.20;0.10;;;18.80;99.90;;;;;;5059316;28;20040;-68
2022/06/06 11:07:00;;;;;;;0.52;0.20;;;19.50;99.90;;;;;;5059348;28;20029;-69
2022/06/06 11:09:50;;;;;;;0.10;0.10;;;19.80;99.90;;;;;;5064754;28;20017;-69
2022/06/06 11:12:30;;;;;;;0.57;0.20;;;20.40;99.90;;;;;;5062824;28;20029;-69
2022/06/06 11:15:01;;;;;;;0.43;0.20;;;20.80;99.90;;;;;;5063467;28;20033;-70
2022/06/06 11:17:47;;;;;;;0.30;0.20;;;20.70;99.90;;;;;;5063687;28;20507;-67
2022/06/06 11:20:31;;;;;;;0.13;0.08;;;20.60;99.90;;;;;;5062315;28;20417;-69
2022/06/06 11:23:17;;;;;;;0.40;0.20;;;20.80;99.90;;;;;;5064048;28;20029;-69
2022/06/06 11:25:58;;;;;;;0.28;0.10;;;20.50;99.90;;;;;;5063455;28;20406;-67
2022/06/06 11:28:54;;;;;;;0.80;0.40;;;20.20;99.90;;;;;;5062436;28;20991;-68
2022/06/06 11:31:39;;;;;;;0.95;0.43;;;19.80;99.90;;;;;;5064189;28;20453;-69
2022/06/06 11:34:39;;;;;;;0.38;0.10;;;19.10;99.90;;;;;;5063118;28;20454;-69
2022/06/06 11:37:13;;;;;;;0.10;0.10;;;20.20;99.90;;;;;;5062129;28;20032;-68
2022/06/06 11:40:21;;;;;;;0.10;0.10;;;20.30;99.90;;;;;;5064166;28;20094;-69
2022/06/06 11:42:46;;;;;;;0.38;0.10;;;20.50;99.90;;;;;;5063248;28;20117;-68
2022/06/06 11:45:30;;;;;;;0.25;0.20;;;20.60;99.90;;;;;;5062511;28;20017;-68
2022/06/06 11:48:20;;;;;;;0.28;0.17;;;21.30;99.90;;;;;;5063556;28;20159;-68
2022/06/06 11:51:01;;;;;;;0.82;0.57;;;21.20;99.90;;;;;;5062139;28;20100;-68
2022/06/06 11:54:04;;;;;;;0.30;0.20;;;20.80;99.90;;;;;;5062835;28;20029;-67
2022/06/06 11:56:39;;;;;;;0.75;0.50;;;21.20;99.90;;;;;;5063693;28;20040;-67
2022/06/06 11:59:26;;;;;;;0.10;0.10;;;20.80;99.90;;;;;;5061471;28;20025;-68
2022/06/06 12:02:10;;;;;;;0.28;0.15;;;20.50;99.90;;;;;;5062992;28;20056;-67
2022/06/06 12:05:09;;;;;;;0.10;0.10;;;20.90;99.90;;;;;;5061817;28;20033;-67
2022/06/06 12:08:11;;;;;;;0.25;0.17;;;20.10;99.90;;;;;;5061354;28;20367;-68
2022/06/06 12:10:49;;;;;;;0.80;0.40;;;20.00;99.90;;;;;;5062668;28;20029;-69
2022/06/06 12:13:21;;;;;;;0.38;0.10;;;20.10;99.90;;;;;;5063238;28;20028;-68
2022/06/06 12:16:05;;;;;;;0.43;0.20;;;20.50;99.90;;;;;;5061085;28;20037;-68
2022/06/06 12:18:43;;;;;;;0.10;0.10;;;20.40;99.90;;;;;;5061841;28;20025;-68
2022/06/06 12:21:29;;;;;;;0.15;0.13;;;20.60;99.90;;;;;;5062200;28;20088;-67
2022/06/06 12:24:00;;;;;;;0.00;0.00;;;20.40;99.90;;;;;;5061433;28;20052;-69
2022/06/06 12:27:03;;;;;;;0.40;0.15;;;20.20;99.90;;;;;;5063076;28;20017;-67
2022/06/06 12:29:53;;;;;;;0.17;0.10;;;20.00;99.90;;;;;;5061679;28;20029;-67
2022/06/06 12:32:38;;;;;;;0.10;0.10;;;19.70;99.90;;;;;;5061842;28;20036;-68
2022/06/06 12:35:10;;;;;;;0.17;0.10;;;19.60;99.90;;;;;;5062903;28;20029;-68
2022/06/06 12:37:47;;;;;;;0.20;0.10;;;19.50;99.90;;;;;;5061017;28;20017;-67
2022/06/06 12:40:19;;;;;;;0.38;0.20;;;19.40;99.90;;;;;;5062562;28;20025;-67
2022/06/06 12:42:45;;;;;;;0.30;0.10;;;19.10;99.90;;;;;;5061995;28;20044;-68
2022/06/06 12:45:35;;;;;;;0.47;0.20;;;18.80;99.90;;;;;;5061292;28;20026;-67
2022/06/06 12:48:26;;;;;;;0.73;0.40;;;18.60;99.90;;;;;;5062454;28;20033;-68
2022/06/06 12:51:27;;;;;;;0.30;0.10;;;18.50;99.90;;;;;;5061124;28;20044;-68
2022/06/06 12:54:12;;;;;;;0.10;0.10;;;19.00;99.90;;;;;;5061198;28;20033;-67
2022/06/06 12:56:51;;;;;;;0.10;0.10;;;19.40;99.90;;;;;;5062723;28;20029;-67
2022/06/06 12:59:44;;;;;;;1.27;0.52;;;19.30;99.90;;;;;;5060980;28;20029;-69
2022/06/06 13:02:31;;;;;;;0.60;0.20;;;19.20;99.90;;;;;;5061331;28;20036;-68
2022/06/06 13:05:06;;;;;;;0.70;0.30;;;19.20;99.90;;;;;;5062570;28;20093;-69
2022/06/06 13:08:00;;;;;;;0.80;0.20;;;19.30;99.90;;;;;;5060512;28;20035;-68
2022/06/06 13:10:38;;;;;;;2.20;0.30;;;19.10;99.90;;;;;;5061620;28;20028;-69
2022/06/06 13:13:18;;;;;;;0.28;0.10;;;18.80;99.90;;;;;;5062068;28;20374;-67
2022/06/06 13:16:05;;;;;;;0.28;0.10;;;18.80;99.90;;;;;;5059869;28;20033;-68
2022/06/06 13:18:55;;;;;;;0.65;0.20;;;18.70;99.90;;;;;;5061487;28;20033;-68
2022/06/06 13:21:33;;;;;;;0.17;0.10;;;19.00;99.90;;;;;;5061362;28;20111;-68
2022/06/06 13:24:14;;;;;;;0.20;0.10;;;18.60;99.90;;;;;;5058664;28;20117;-69
2022/06/06 13:26:50;;;;;;;0.20;0.10;;;18.70;99.90;;;;;;5062166;28;20029;-68
2022/06/06 13:29:36;;;;;;;0.17;0.10;;;18.50;99.90;;;;;;5060146;28;20282;-68
2022/06/06 13:32:29;;;;;;;0.15;0.10;;;18.10;99.90;;;;;;5060881;28;20147;-68
2022/06/06 13:35:34;;;;;;;1.23;0.30;;;18.10;99.90;;;;;;5061795;28;20111;-70
2022/06/06 13:38:48;;;;;;;0.63;0.25;;;17.80;99.90;;;;;;5060566;28;20029;-67
2022/06/06 13:41:49;;;;;;;0.32;0.10;;;17.60;99.90;;;;;;5054664;28;20041;-68
2022/06/06 13:44:46;;;;;;;0.77;0.53;;;17.00;99.90;;;;;;5061641;28;20094;-68
2022/06/06 13:47:51;;;;;;;0.20;0.10;;;16.70;99.90;;;;;;5060890;28;20546;-68
2022/06/06 13:50:41;;;;;;;0.10;0.10;;;16.40;99.90;;;;;;5059599;28;20029;-68
2022/06/06 13:53:32;;;;;;;0.93;0.28;;;16.20;99.90;;;;;;5061218;28;20017;-68
2022/06/06 13:56:25;;;;;;;0.63;0.20;;;16.00;99.90;;;;;;5061190;28;20096;-69
2022/06/06 13:59:00;;;;;;;0.80;0.28;;;16.00;99.90;;;;;;5059578;28;20028;-69
2022/06/06 14:01:40;;;;;;;0.47;0.20;;;16.00;99.90;;;;;;5060045;28;20025;-68
2022/06/06 14:04:37;;;;;;;0.77;0.32;;;15.80;99.90;;;;;;5060839;28;20449;-68
2022/06/06 14:07:11;;;;;;;0.77;0.30;;;15.70;99.90;;;;;;5059663;28;20036;-69
2022/06/06 14:09:46;;;;;;;0.52;0.20;;;15.80;99.90;;;;;;5061812;28;20108;-69
2022/06/06 14:12:31;;;;;;;0.65;0.25;;;15.70;99.90;;;;;;5060946;28;20012;-69
2022/06/06 14:15:02;;;;;;;0.88;0.32;;;15.60;99.90;;;;;;5062027;28;20036;-69
2022/06/06 14:17:30;;;;;;;0.20;0.20;;;15.70;99.90;;;;;;5062290;28;20086;-69